Time;durP1;ratioP1;P1;durP2;ratioP2;P2;SDS_P1;SDS_P2;PMS_P1;PMS_P2;Temp;Humidity;BMP_temperature;BMP_pressure;BME280_temperature;BME280_humidity;BME280_pressure;Samples;Min_cycle;Max_cycle;Signal;HPM_P1;HPM_P2
2022/09/28 00:00:05;;;;;;;;;3.00;0.00;;;;;14.47;100.00;99666.72;5074823;28;46155;-72
2022/09/28 00:02:31;;;;;;;;;1.67;0.33;;;;;14.46;100.00;99672.91;5076799;28;45213;-72
2022/09/28 00:04:56;;;;;;;;;1.00;0.00;;;;;14.45;100.00;99668.53;5076365;28;45301;-72
2022/09/28 00:07:22;;;;;;;;;1.67;1.00;;;;;14.49;100.00;99664.03;5076741;28;45746;-72
2022/09/28 00:09:47;;;;;;;;;1.00;1.00;;;;;14.49;100.00;99662.28;5075501;28;45738;-72
2022/09/28 00:12:12;;;;;;;;;2.00;0.00;;;;;14.51;100.00;99678.16;5075640;28;45343;-72
2022/09/28 00:14:39;;;;;;;;;0.00;0.00;;;;;14.52;100.00;99677.25;5074666;28;45636;-71
2022/09/28 00:17:06;;;;;;;;;0.00;0.00;;;;;14.53;100.00;99673.69;5074398;28;45320;-71
2022/09/28 00:19:31;;;;;;;;;2.33;1.00;;;;;14.52;100.00;99670.16;5075103;28;45802;-71
2022/09/28 00:21:56;;;;;;;;;1.67;1.67;;;;;14.48;100.00;99652.53;5076388;28;46489;-71
2022/09/28 00:24:22;;;;;;;;;2.00;0.33;;;;;14.49;100.00;99670.25;5073203;28;45418;-70
2022/09/28 00:26:53;;;;;;;;;2.00;0.33;;;;;14.46;100.00;99667.59;5076008;28;59559;-73
2022/09/28 00:29:28;;;;;;;;;2.00;1.00;;;;;14.48;100.00;99664.94;5073713;28;45673;-72
2022/09/28 00:31:58;;;;;;;;;0.00;0.00;;;;;14.40;100.00;99658.00;5049133;28;45478;-71
2022/09/28 00:34:28;;;;;;;;;1.00;1.00;;;;;14.44;100.00;99666.78;5070644;28;45441;-72
2022/09/28 00:36:53;;;;;;;;;0.00;0.00;;;;;14.37;100.00;99658.06;5030677;28;45374;-72
2022/09/28 00:39:19;;;;;;;;;1.00;1.00;;;;;14.41;100.00;99662.41;5050399;28;68114;-71
2022/09/28 00:41:45;;;;;;;;;2.00;0.00;;;;;14.33;100.00;99651.09;5054830;28;45498;-70
2022/09/28 00:44:25;;;;;;;;;2.00;0.00;;;;;14.36;100.00;99663.41;5051883;28;63519;-71
2022/09/28 00:46:55;;;;;;;;;4.00;0.67;;;;;14.31;100.00;99660.00;5043830;28;45498;-71
2022/09/28 00:49:27;;;;;;;;;1.00;1.00;;;;;14.30;100.00;99661.78;5051255;28;45534;-72
2022/09/28 00:51:53;;;;;;;;;1.00;1.00;;;;;14.30;100.00;99655.59;5028373;28;45514;-71
2022/09/28 00:54:18;;;;;;;;;0.00;0.00;;;;;14.26;100.00;99646.81;5046752;28;62992;-72
2022/09/28 00:56:46;;;;;;;;;2.00;0.33;;;;;14.25;100.00;99647.72;5049556;28;63636;-71
2022/09/28 00:59:12;;;;;;;;;4.67;1.33;;;;;14.23;100.00;99644.25;5052731;28;67355;-70
2022/09/28 01:01:37;;;;;;;;;2.00;0.67;;;;;14.23;100.00;99651.34;5036577;28;70645;-72
2022/09/28 01:04:04;;;;;;;;;1.33;1.00;;;;;14.27;100.00;99663.63;5051102;28;59778;-71
2022/09/28 01:06:32;;;;;;;;;1.00;1.00;;;;;14.21;100.00;99634.56;5037210;28;45556;-72
2022/09/28 01:09:01;;;;;;;;;1.33;0.67;;;;;14.27;100.00;99653.00;5052352;28;46593;-72
2022/09/28 01:11:30;;;;;;;;;0.00;0.00;;;;;14.24;100.00;99653.09;5036336;28;45455;-71
2022/09/28 01:13:56;;;;;;;;;1.67;1.67;;;;;14.29;100.00;99653.84;5031705;28;45518;-71
2022/09/28 01:16:22;;;;;;;;;4.33;1.00;;;;;14.28;100.00;99654.78;5042139;28;45526;-71
2022/09/28 01:19:06;;;;;;;;;0.67;0.67;;;;;14.30;100.00;99651.16;5054581;28;45630;-71
2022/09/28 01:21:43;;;;;;;;;3.00;1.67;;;;;14.30;100.00;99652.94;5055293;28;45396;-71
2022/09/28 01:24:29;;;;;;;;;2.00;0.00;;;;;14.31;100.00;99641.41;5033121;28;45523;-71
2022/09/28 01:27:12;;;;;;;;;1.00;1.00;;;;;14.30;100.00;99637.00;5049438;28;45499;-71
2022/09/28 01:29:42;;;;;;;;;1.00;1.00;;;;;14.33;100.00;99642.25;5046114;28;46498;-72
2022/09/28 01:32:25;;;;;;;;;1.00;1.00;;;;;14.37;100.00;99646.56;5051952;28;45489;-72
2022/09/28 01:35:00;;;;;;;;;1.00;1.00;;;;;14.34;100.00;99638.69;5034147;28;45451;-72
2022/09/28 01:37:56;;;;;;;;;0.00;0.00;;;;;14.40;100.00;99641.19;5072051;28;45482;-71
2022/09/28 01:40:24;;;;;;;;;1.00;1.00;;;;;14.37;100.00;99643.91;5009663;28;46739;-72
2022/09/28 01:42:54;;;;;;;;;2.00;1.00;;;;;14.36;100.00;99648.34;5050995;28;45432;-71
2022/09/28 01:45:27;;;;;;;;;0.00;0.00;;;;;14.40;100.00;99643.84;5056620;28;45463;-71
2022/09/28 01:47:56;;;;;;;;;2.00;1.00;;;;;14.35;100.00;99632.47;5075881;28;45193;-71
2022/09/28 01:50:24;;;;;;;;;2.00;1.00;;;;;14.32;100.00;99624.56;5054816;28;46571;-72
2022/09/28 01:52:54;;;;;;;;;1.67;1.00;;;;;14.40;100.00;99633.22;5079460;28;45426;-71
2022/09/28 01:55:32;;;;;;;;;4.00;1.00;;;;;14.38;100.00;99627.06;5061081;28;45422;-72
2022/09/28 01:58:07;;;;;;;;;2.00;0.33;;;;;14.40;100.00;99628.78;5055744;28;45539;-72
2022/09/28 02:00:33;;;;;;;;;1.00;1.00;;;;;14.35;100.00;99627.16;5056580;28;46851;-71
2022/09/28 02:03:05;;;;;;;;;3.33;1.00;;;;;14.34;100.00;99623.63;5064236;28;45514;-72
2022/09/28 02:05:36;;;;;;;;;0.33;0.33;;;;;14.37;100.00;99623.53;5059761;28;46005;-71
2022/09/28 02:08:11;;;;;;;;;3.33;2.00;;;;;14.38;100.00;99629.72;5073916;28;45577;-70
2022/09/28 02:10:52;;;;;;;;;1.00;1.00;;;;;14.38;100.00;99622.66;5072579;28;46664;-72
2022/09/28 02:13:23;;;;;;;;;3.67;1.00;;;;;14.38;100.00;99629.72;5059153;28;45509;-72
2022/09/28 02:16:04;;;;;;;;;2.00;0.00;;;;;14.38;100.00;99621.75;5078444;28;45284;-71
2022/09/28 02:18:29;;;;;;;;;2.33;0.67;;;;;14.38;100.00;99627.06;5058051;28;45552;-72
2022/09/28 02:20:59;;;;;;;;;1.67;1.00;;;;;14.36;100.00;99624.47;5076036;28;63849;-71
2022/09/28 02:23:26;;;;;;;;;1.00;1.00;;;;;14.31;100.00;99618.38;5075935;28;45572;-71
2022/09/28 02:26:00;;;;;;;;;2.33;1.33;;;;;14.28;100.00;99613.16;5076306;28;45511;-72
2022/09/28 02:28:25;;;;;;;;;1.00;1.00;;;;;14.30;100.00;99608.66;5077925;28;45520;-71
2022/09/28 02:30:50;;;;;;;;;3.00;1.00;;;;;14.26;100.00;99614.09;5058154;28;61827;-71
2022/09/28 02:33:23;;;;;;;;;4.67;1.00;;;;;14.24;100.00;99605.28;5077590;28;45474;-72
2022/09/28 02:35:49;;;;;;;;;1.00;1.00;;;;;14.23;100.00;99609.75;5052811;28;45945;-71
2022/09/28 02:38:15;;;;;;;;;5.00;0.33;;;;;14.20;100.00;99604.50;5056197;28;66037;-72
2022/09/28 02:40:43;;;;;;;;;1.33;1.00;;;;;14.20;100.00;99616.88;5050590;28;46600;-71
2022/09/28 02:43:14;;;;;;;;;2.67;2.00;;;;;14.22;100.00;99610.66;5051803;28;45544;-71
2022/09/28 02:45:49;;;;;;;;;2.33;0.67;;;;;14.21;100.00;99618.63;5058327;28;45387;-71
2022/09/28 02:48:33;;;;;;;;;4.67;1.00;;;;;14.21;100.00;99610.66;5049339;28;45422;-71
2022/09/28 02:51:01;;;;;;;;;1.00;1.00;;;;;14.19;100.00;99612.50;5051868;28;45836;-72
2022/09/28 02:53:44;;;;;;;;;2.33;1.00;;;;;14.15;100.00;99609.91;5051723;28;45514;-72
2022/09/28 02:56:33;;;;;;;;;2.33;1.00;;;;;14.14;100.00;99610.81;5056264;28;45465;-71
2022/09/28 02:59:35;;;;;;;;;2.00;2.00;;;;;14.09;100.00;99595.91;5051010;28;45414;-71
2022/09/28 03:02:07;;;;;;;;;4.67;1.00;;;;;14.03;100.00;99586.31;5057581;28;46708;-72
2022/09/28 03:04:51;;;;;;;;;2.33;1.00;;;;;14.07;100.00;99600.38;5056332;28;45251;-71
2022/09/28 03:07:23;;;;;;;;;1.67;1.00;;;;;14.10;100.00;99609.13;5052652;28;45378;-71
2022/09/28 03:09:58;;;;;;;;;2.00;0.00;;;;;14.08;100.00;99613.63;5053907;28;45473;-71
2022/09/28 03:12:24;;;;;;;;;3.00;1.00;;;;;14.07;100.00;99614.53;5051296;28;45756;-70
2022/09/28 03:15:31;;;;;;;;;2.67;2.00;;;;;14.06;100.00;99623.41;5046776;28;67453;-70
2022/09/28 03:17:57;;;;;;;;;1.33;1.33;;;;;14.05;100.00;99611.00;5013085;28;45488;-72
2022/09/28 03:20:24;;;;;;;;;0.67;0.67;;;;;14.06;100.00;99611.88;5015627;28;45686;-72
2022/09/28 03:22:49;;;;;;;;;2.33;1.00;;;;;14.01;100.00;99609.38;5025035;28;45601;-72
2022/09/28 03:25:15;;;;;;;;;3.33;1.67;;;;;14.02;100.00;99610.22;5057400;28;49763;-71
2022/09/28 03:27:41;;;;;;;;;2.00;2.00;;;;;13.98;100.00;99605.91;5068819;28;45518;-71
2022/09/28 03:30:07;;;;;;;;;1.33;1.00;;;;;14.03;100.00;99617.28;5057254;28;45300;-72
2022/09/28 03:32:32;;;;;;;;;2.33;1.33;;;;;13.99;100.00;99620.91;5049930;28;47574;-71
2022/09/28 03:34:57;;;;;;;;;3.00;1.33;;;;;14.03;100.00;99630.56;5057154;28;45510;-71
2022/09/28 03:37:23;;;;;;;;;2.00;1.00;;;;;14.03;100.00;99636.72;5076532;28;63609;-71
2022/09/28 03:39:48;;;;;;;;;1.67;1.67;;;;;14.03;100.00;99634.06;5074879;28;45564;-71
2022/09/28 03:42:13;;;;;;;;;2.00;2.00;;;;;14.03;100.00;99642.03;5071431;28;61395;-72
2022/09/28 03:44:39;;;;;;;;;1.67;1.00;;;;;14.03;100.00;99643.81;5066633;28;64286;-72
2022/09/28 03:47:06;;;;;;;;;2.67;1.00;;;;;14.02;100.00;99642.09;5076792;28;66222;-70
2022/09/28 03:49:31;;;;;;;;;2.67;2.67;;;;;13.99;100.00;99639.47;5076107;28;45742;-71
2022/09/28 03:51:56;;;;;;;;;2.00;2.00;;;;;13.95;100.00;99636.00;5073788;28;65946;-72
2022/09/28 03:54:22;;;;;;;;;2.67;2.00;;;;;13.91;100.00;99637.00;5069098;28;45357;-71
2022/09/28 03:56:47;;;;;;;;;2.67;1.00;;;;;13.85;100.00;99627.41;5076527;28;45671;-71
2022/09/28 03:59:13;;;;;;;;;1.33;1.33;;;;;13.87;100.00;99635.31;5072733;28;62481;-71
2022/09/28 04:01:38;;;;;;;;;6.00;1.67;;;;;13.88;100.00;99637.94;5070970;28;46550;-72
2022/09/28 04:04:03;;;;;;;;;3.33;2.00;;;;;13.83;100.00;99630.97;5073799;28;61009;-71
2022/09/28 04:06:29;;;;;;;;;1.67;1.67;;;;;13.84;100.00;99628.28;5075998;28;59300;-71
2022/09/28 04:08:54;;;;;;;;;3.00;1.00;;;;;13.91;100.00;99638.78;5075139;28;53894;-71
2022/09/28 04:11:19;;;;;;;;;2.00;2.00;;;;;13.89;100.00;99637.03;5074868;28;66790;-71
2022/09/28 04:13:48;;;;;;;;;4.00;2.00;;;;;13.92;100.00;99635.22;5069320;28;45694;-73
2022/09/28 04:16:14;;;;;;;;;3.00;2.00;;;;;13.93;100.00;99643.16;5076148;28;46765;-71
2022/09/28 04:18:41;;;;;;;;;2.67;1.33;;;;;13.98;100.00;99651.00;5076163;28;45363;-71
2022/09/28 04:21:09;;;;;;;;;3.00;1.67;;;;;14.00;100.00;99654.50;5075340;28;45818;-71
2022/09/28 04:23:35;;;;;;;;;1.00;1.00;;;;;13.98;100.00;99641.25;5073396;28;45483;-71
2022/09/28 04:26:02;;;;;;;;;3.67;1.67;;;;;13.97;100.00;99643.97;5076590;28;45491;-71
2022/09/28 04:31:15;;;;;;;;;5.00;2.00;;;;;14.03;100.00;99652.66;5048801;28;45887;-72
2022/09/28 04:33:41;;;;;;;;;3.00;3.00;;;;;14.02;100.00;99655.34;5058332;28;45452;-71
2022/09/28 04:36:08;;;;;;;;;2.00;2.00;;;;;14.02;100.00;99661.53;5076043;28;45473;-72
2022/09/28 04:38:33;;;;;;;;;3.00;2.00;;;;;13.93;100.00;99645.81;5074096;28;45614;-73
2022/09/28 04:40:59;;;;;;;;;2.33;1.00;;;;;14.02;100.00;99669.50;5076545;28;46420;-71
2022/09/28 04:43:24;;;;;;;;;3.33;2.00;;;;;13.99;100.00;99660.72;5068126;28;45522;-71
2022/09/28 04:45:49;;;;;;;;;4.00;3.00;;;;;14.01;100.00;99675.72;5075507;28;51814;-71
2022/09/28 04:48:15;;;;;;;;;3.00;3.00;;;;;13.96;100.00;99661.66;5074502;28;63346;-72
2022/09/28 04:50:40;;;;;;;;;2.00;2.00;;;;;13.99;100.00;99671.34;5069379;28;55809;-70
2022/09/28 04:53:05;;;;;;;;;3.00;3.00;;;;;13.95;100.00;99670.50;5063391;28;62872;-72
2022/09/28 04:55:31;;;;;;;;;2.67;2.67;;;;;13.91;100.00;99665.34;5075738;28;60633;-71
2022/09/28 04:58:01;;;;;;;;;2.67;2.67;;;;;13.93;100.00;99668.81;5068677;28;45494;-72
2022/09/28 05:00:32;;;;;;;;;3.00;3.00;;;;;13.94;100.00;99675.88;5074151;28;45732;-72
2022/09/28 05:02:57;;;;;;;;;3.67;2.00;;;;;13.90;100.00;99659.13;5074856;28;45516;-70
2022/09/28 05:05:23;;;;;;;;;5.00;3.00;;;;;13.93;100.00;99652.88;5071137;28;56962;-71
2022/09/28 05:07:48;;;;;;;;;3.33;3.00;;;;;13.99;100.00;99656.28;5070139;28;45323;-71
2022/09/28 05:10:13;;;;;;;;;6.00;3.33;;;;;14.00;100.00;99668.63;5073382;28;67094;-71
2022/09/28 05:12:39;;;;;;;;;6.00;3.00;;;;;13.94;100.00;99655.50;5067686;28;45543;-72
2022/09/28 05:15:04;;;;;;;;;3.00;3.00;;;;;14.00;100.00;99658.03;5074632;28;45452;-72
2022/09/28 05:17:30;;;;;;;;;2.67;2.67;;;;;13.98;100.00;99651.00;5072087;28;45447;-70
2022/09/28 05:19:56;;;;;;;;;4.33;2.67;;;;;14.01;100.00;99657.13;5074111;28;45516;-70
2022/09/28 05:22:21;;;;;;;;;2.33;2.33;;;;;14.07;100.00;99661.44;5074106;28;45461;-71
2022/09/28 05:24:46;;;;;;;;;2.00;2.00;;;;;14.08;100.00;99657.88;5069388;28;45442;-70
2022/09/28 05:27:12;;;;;;;;;5.00;2.00;;;;;14.06;100.00;99660.56;5067998;28;45534;-72
2022/09/28 05:29:37;;;;;;;;;5.00;3.67;;;;;14.04;100.00;99662.34;5074652;28;46447;-70
2022/09/28 05:32:03;;;;;;;;;3.00;3.00;;;;;14.02;100.00;99652.69;5057007;28;66622;-70
2022/09/28 05:37:03;;;;;;;;;3.33;2.00;;;;;13.98;100.00;99653.66;5020907;26;45755;-69
2022/09/28 05:39:28;;;;;;;;;4.00;4.00;;;;;13.97;100.00;99647.50;5034074;28;70113;-69
2022/09/28 05:41:54;;;;;;;;;5.00;2.33;;;;;13.98;100.00;99657.19;5033982;28;45403;-69
2022/09/28 05:44:20;;;;;;;;;3.67;3.00;;;;;14.00;100.00;99665.97;5030544;28;45525;-68
2022/09/28 05:46:45;;;;;;;;;4.33;4.00;;;;;14.03;100.00;99659.75;5031113;28;58421;-68
2022/09/28 05:49:11;;;;;;;;;2.00;2.00;;;;;14.06;100.00;99671.19;5031680;28;61233;-69
2022/09/28 05:51:38;;;;;;;;;4.33;3.00;;;;;14.02;100.00;99658.88;5032858;28;45486;-70
2022/09/28 05:54:03;;;;;;;;;4.00;2.67;;;;;14.02;100.00;99665.97;5032465;28;45435;-70
2022/09/28 05:56:29;;;;;;;;;4.00;3.00;;;;;14.09;100.00;99675.53;5031658;28;60316;-71
2022/09/28 05:58:57;;;;;;;;;3.33;2.67;;;;;14.05;100.00;99672.06;5036541;28;46376;-69
2022/09/28 06:01:23;;;;;;;;;4.00;2.33;;;;;14.04;100.00;99672.97;5033104;28;45507;-70
2022/09/28 06:03:48;;;;;;;;;4.00;3.00;;;;;14.08;100.00;99687.06;5034486;28;45483;-69
2022/09/28 06:06:13;;;;;;;;;3.33;3.00;;;;;14.08;100.00;99684.41;5024988;28;55994;-71
2022/09/28 06:08:42;;;;;;;;;4.00;2.00;;;;;14.10;100.00;99687.88;5028383;28;67654;-71
2022/09/28 06:11:07;;;;;;;;;5.00;3.00;;;;;14.12;100.00;99694.06;5029679;28;45510;-71
2022/09/28 06:13:33;;;;;;;;;4.00;2.33;;;;;14.13;100.00;99682.53;5021325;28;58607;-70
2022/09/28 06:15:59;;;;;;;;;2.33;2.33;;;;;14.10;100.00;99685.25;5032100;28;45565;-70
2022/09/28 06:18:24;;;;;;;;;3.33;2.67;;;;;14.05;100.00;99679.16;5032068;28;46407;-70
2022/09/28 06:20:49;;;;;;;;;3.00;2.67;;;;;14.06;100.00;99691.50;5031971;28;62668;-70
2022/09/28 06:23:14;;;;;;;;;9.67;7.00;;;;;13.97;100.00;99679.34;5022840;28;62532;-70
2022/09/28 06:25:40;;;;;;;;;5.00;3.00;;;;;14.03;100.00;99694.25;5032875;28;64132;-70
2022/09/28 06:28:09;;;;;;;;;7.00;4.00;;;;;14.00;100.00;99691.66;5033309;28;70821;-71
2022/09/28 06:30:37;;;;;;;;;9.33;4.00;;;;;13.97;100.00;99686.44;5030950;28;45491;-70
2022/09/28 06:33:04;;;;;;;;;3.00;3.00;;;;;14.03;100.00;99700.44;5029641;28;46770;-71
2022/09/28 06:35:30;;;;;;;;;3.33;3.33;;;;;14.06;100.00;99708.34;5029437;28;45452;-70
2022/09/28 06:37:59;;;;;;;;;4.67;3.67;;;;;14.02;100.00;99696.03;5035394;28;45577;-70
2022/09/28 06:40:24;;;;;;;;;5.00;4.00;;;;;14.04;100.00;99696.00;5019726;28;45437;-71
2022/09/28 06:43:11;;;;;;;;;1.33;1.33;;;;;14.10;100.00;99710.00;5034654;28;60773;-71
2022/09/28 06:45:37;;;;;;;;;4.67;2.67;;;;;14.09;100.00;99708.25;5019505;28;46981;-70
2022/09/28 06:48:03;;;;;;;;;3.00;3.00;;;;;14.14;100.00;99719.66;5037311;28;46468;-70
2022/09/28 06:50:41;;;;;;;;;3.00;0.67;;;;;14.16;100.00;99717.81;5034888;28;45454;-70
2022/09/28 06:53:09;;;;;;;;;4.00;3.00;;;;;14.18;100.00;99717.81;5039333;28;45219;-69
2022/09/28 06:55:38;;;;;;;;;2.00;2.00;;;;;14.11;100.00;99722.41;5035819;28;45488;-68
2022/09/28 06:58:05;;;;;;;;;4.00;3.00;;;;;14.06;100.00;99720.72;5019083;28;46517;-71
2022/09/28 07:00:33;;;;;;;;;4.00;3.00;;;;;13.98;100.00;99720.88;5036453;28;45467;-69
2022/09/28 07:03:00;;;;;;;;;3.33;3.00;;;;;14.03;100.00;99731.41;5036930;28;46694;-69
2022/09/28 07:05:26;;;;;;;;;5.00;4.00;;;;;14.02;100.00;99737.63;5036217;28;45554;-70
2022/09/28 07:08:00;;;;;;;;;4.00;4.00;;;;;13.99;100.00;99724.41;5017978;28;45543;-69
2022/09/28 07:10:28;;;;;;;;;3.67;2.67;;;;;14.04;100.00;99735.81;5035328;28;45552;-69
2022/09/28 07:12:55;;;;;;;;;4.67;3.67;;;;;14.06;100.00;99739.28;5035625;28;45606;-69
2022/09/28 07:15:20;;;;;;;;;4.00;2.00;;;;;14.03;100.00;99740.25;5034496;28;45591;-69
2022/09/28 07:17:46;;;;;;;;;3.00;3.00;;;;;13.98;100.00;99736.81;5036336;28;46083;-69
2022/09/28 07:20:12;;;;;;;;;2.00;2.00;;;;;13.95;100.00;99741.28;5033909;28;45444;-70
2022/09/28 07:22:38;;;;;;;;;2.00;2.00;;;;;13.93;100.00;99738.69;5036519;28;45515;-70
2022/09/28 07:25:07;;;;;;;;;3.00;3.00;;;;;14.00;100.00;99750.91;5019133;28;45554;-69
2022/09/28 07:27:35;;;;;;;;;2.00;2.00;;;;;14.00;100.00;99739.41;5036018;28;46556;-69
2022/09/28 07:30:01;;;;;;;;;3.00;1.00;;;;;14.10;100.00;99747.16;5036290;28;45478;-72
2022/09/28 07:32:27;;;;;;;;;2.33;2.33;;;;;14.16;100.00;99751.47;5036208;28;45322;-72
2022/09/28 07:34:53;;;;;;;;;3.00;3.00;;;;;14.20;100.00;99758.47;5036783;28;45372;-72
2022/09/28 07:37:18;;;;;;;;;7.00;5.33;;;;;14.23;100.00;99758.41;5017125;28;46334;-72
2022/09/28 07:42:29;;;;;;;;;2.67;2.00;;;;;14.27;100.00;99749.47;5014483;28;45313;-72
2022/09/28 07:44:57;;;;;;;;;2.00;2.00;;;;;14.29;100.00;99758.28;5016732;28;45452;-72
2022/09/28 07:47:25;;;;;;;;;2.00;1.00;;;;;14.33;100.00;99762.63;5016150;28;46007;-72
2022/09/28 07:49:55;;;;;;;;;3.00;1.00;;;;;14.34;100.00;99771.47;5016649;28;45922;-72
2022/09/28 07:52:25;;;;;;;;;3.33;3.33;;;;;14.40;100.00;99772.19;5017309;28;45464;-72
2022/09/28 07:54:54;;;;;;;;;3.33;3.33;;;;;14.48;100.00;99780.03;5017377;28;45901;-72
2022/09/28 07:57:21;;;;;;;;;3.00;3.00;;;;;14.50;100.00;99770.25;5016920;28;45667;-73
2022/09/28 07:59:47;;;;;;;;;3.67;2.00;;;;;14.59;100.00;99783.31;5017185;28;45404;-73
2022/09/28 08:02:13;;;;;;;;;2.00;2.00;;;;;14.59;100.00;99779.78;4988267;28;45393;-72
2022/09/28 08:04:39;;;;;;;;;2.00;1.00;;;;;14.61;100.00;99783.31;5016918;28;45515;-73
2022/09/28 08:07:09;;;;;;;;;3.33;1.00;;;;;14.62;100.00;99790.34;5015582;28;45711;-72
2022/09/28 08:09:34;;;;;;;;;1.67;1.67;;;;;14.60;100.00;99789.53;5015957;28;45978;-72
2022/09/28 08:12:00;;;;;;;;;2.00;2.00;;;;;14.60;100.00;99786.88;5009978;28;63517;-72
2022/09/28 08:14:25;;;;;;;;;1.67;1.67;;;;;14.56;100.00;99785.19;5019833;28;45599;-72
2022/09/28 08:16:51;;;;;;;;;3.67;1.33;;;;;14.51;100.00;99787.06;5024953;28;46581;-72
2022/09/28 08:19:17;;;;;;;;;5.33;1.33;;;;;14.45;100.00;99781.84;5018355;28;46345;-72
2022/09/28 08:21:45;;;;;;;;;3.00;1.67;;;;;14.50;100.00;99796.81;5011987;28;56177;-71
2022/09/28 08:24:15;;;;;;;;;1.33;1.33;;;;;14.50;100.00;99794.16;5015359;28;45469;-72
2022/09/28 08:26:41;;;;;;;;;4.00;1.00;;;;;14.58;100.00;99802.81;5010751;28;46533;-71
2022/09/28 08:29:07;;;;;;;;;1.00;1.00;;;;;14.55;100.00;99792.28;5015353;28;45384;-71
2022/09/28 08:31:33;;;;;;;;;4.67;1.67;;;;;14.57;100.00;99798.44;5015222;28;45492;-72
2022/09/28 08:33:58;;;;;;;;;1.67;1.67;;;;;14.60;100.00;99803.69;5014458;28;46794;-71
2022/09/28 08:36:23;;;;;;;;;2.67;1.00;;;;;14.54;100.00;99801.16;5022467;28;70702;-73
2022/09/28 08:38:49;;;;;;;;;3.67;1.00;;;;;14.53;100.00;99795.88;5030457;28;47060;-71
2022/09/28 08:41:35;;;;;;;;;2.00;1.67;;;;;14.52;100.00;99797.66;5032364;28;61560;-72
2022/09/28 08:44:24;;;;;;;;;4.00;1.00;;;;;14.54;100.00;99795.84;5033154;28;45356;-72
2022/09/28 08:47:05;;;;;;;;;1.33;1.33;;;;;14.59;100.00;99793.94;5032485;28;45725;-72
2022/09/28 08:49:38;;;;;;;;;2.00;0.67;;;;;14.64;100.00;99804.47;5047233;28;45491;-73
2022/09/28 08:52:19;;;;;;;;;0.33;0.33;;;;;14.66;100.00;99798.22;5017601;28;45529;-72
2022/09/28 08:54:53;;;;;;;;;2.00;2.00;;;;;14.74;100.00;99800.69;5033943;28;45455;-71
2022/09/28 08:57:22;;;;;;;;;2.00;1.00;;;;;14.83;100.00;99796.97;5010751;28;46566;-72
2022/09/28 08:59:56;;;;;;;;;2.00;2.00;;;;;14.92;100.00;99812.72;5030807;28;45792;-72
2022/09/28 09:02:35;;;;;;;;;1.67;1.00;;;;;15.06;100.00;99813.25;5035901;28;45455;-73
2022/09/28 09:05:03;;;;;;;;;0.67;0.67;;;;;15.12;100.00;99798.94;5019817;28;45507;-72
2022/09/28 09:07:28;;;;;;;;;3.67;1.00;;;;;15.19;100.00;99805.88;5031695;28;47164;-71
2022/09/28 09:10:00;;;;;;;;;1.00;1.00;;;;;15.20;100.00;99805.81;5035110;28;45428;-72
2022/09/28 09:12:54;;;;;;;;;3.00;1.00;;;;;15.19;100.00;99805.88;5016508;28;45501;-69
2022/09/28 09:15:37;;;;;;;;;1.00;1.00;;;;;15.16;100.00;99798.81;5017958;28;45301;-69
2022/09/28 09:18:09;;;;;;;;;3.67;1.67;;;;;15.16;100.00;99803.28;5034028;28;46639;-71
2022/09/28 09:20:46;;;;;;;;;1.00;1.00;;;;;15.15;100.00;99806.84;5031301;28;45559;-73
2022/09/28 09:23:24;;;;;;;;;1.67;1.00;;;;;15.16;100.00;99805.94;5015127;28;45483;-70
2022/09/28 09:25:54;;;;;;;;;3.00;1.00;;;;;15.19;100.00;99806.75;5035353;28;45249;-69
2022/09/28 09:28:43;;;;;;;;;2.33;1.00;;;;;15.25;100.00;99807.50;5032471;28;45696;-69
2022/09/28 09:31:34;;;;;;;;;3.00;1.00;;;;;15.24;100.00;99793.34;5021514;28;45258;-72
2022/09/28 09:34:34;;;;;;;;;0.67;0.67;;;;;15.36;100.00;99802.78;5031603;28;45561;-71
2022/09/28 09:37:16;;;;;;;;;4.67;1.00;;;;;15.50;100.00;99806.00;4994176;28;45519;-68
2022/09/28 09:39:50;;;;;;;;;3.67;1.33;;;;;15.58;100.00;99806.66;5010970;28;46129;-71
2022/09/28 09:42:49;;;;;;;;;2.67;1.00;;;;;15.63;100.00;99803.91;5018988;28;45602;-71
2022/09/28 09:45:42;;;;;;;;;1.00;1.00;;;;;15.66;100.00;99806.50;5035025;28;45507;-70
2022/09/28 09:48:30;;;;;;;;;1.00;1.00;;;;;15.68;100.00;99802.88;5034081;28;45488;-73
2022/09/28 09:51:03;;;;;;;;;1.33;1.33;;;;;15.71;100.00;99804.56;5033032;28;45871;-72
2022/09/28 09:53:43;;;;;;;;;1.00;1.00;;;;;15.72;100.00;99801.00;5030459;28;45514;-69
2022/09/28 09:56:15;;;;;;;;;1.00;1.00;;;;;15.68;100.00;99802.00;5016101;28;45501;-69
2022/09/28 09:58:45;;;;;;;;;1.00;1.00;;;;;15.65;100.00;99797.63;5034007;28;45428;-70
2022/09/28 10:01:12;;;;;;;;;0.67;0.67;;;;;15.74;100.00;99800.97;5029757;28;47821;-72
2022/09/28 10:03:47;;;;;;;;;4.00;1.00;;;;;15.87;100.00;99794.38;5016075;28;45541;-71
2022/09/28 10:06:19;;;;;;;;;1.00;1.00;;;;;15.98;100.00;99800.31;5014985;28;45846;-70
2022/09/28 10:08:52;;;;;;;;;2.00;2.00;;;;;16.08;100.00;99792.91;5031826;28;45700;-69
2022/09/28 10:11:26;;;;;;;;;1.00;1.00;;;;;16.14;100.00;99792.72;5019954;28;46498;-69
2022/09/28 10:13:51;;;;;;;;;1.00;1.00;;;;;16.12;100.00;99783.94;5011187;28;45737;-71
2022/09/28 10:16:17;;;;;;;;;1.00;1.00;;;;;16.15;100.00;99794.50;5035773;28;45313;-69
2022/09/28 10:18:43;;;;;;;;;1.00;1.00;;;;;16.08;100.00;99787.59;5020881;28;45525;-70
2022/09/28 10:21:17;;;;;;;;;1.33;1.33;;;;;16.16;100.00;99791.78;5018931;28;46049;-70
2022/09/28 10:23:44;;;;;;;;;1.00;1.00;;;;;16.30;100.00;99793.16;5043615;28;46695;-70
2022/09/28 10:26:12;;;;;;;;;0.00;0.00;;;;;16.36;100.00;99799.22;5005128;28;45461;-72
2022/09/28 10:28:47;;;;;;;;;1.33;1.00;;;;;16.34;100.00;99800.16;5027910;28;45534;-71
2022/09/28 10:31:42;;;;;;;;;2.00;0.00;;;;;16.26;100.00;99800.41;5032681;28;46564;-72
2022/09/28 10:34:12;;;;;;;;;0.33;0.33;;;;;16.13;100.00;99786.53;5033134;28;46133;-71
2022/09/28 10:36:48;;;;;;;;;1.00;1.00;;;;;16.12;100.00;99798.09;5033226;28;45451;-70
2022/09/28 10:39:33;;;;;;;;;1.00;1.00;;;;;16.16;100.00;99791.78;5015582;28;45469;-71
2022/09/28 10:42:02;;;;;;;;;1.00;1.00;;;;;16.22;100.00;99794.28;5033791;28;47343;-70
2022/09/28 10:44:31;;;;;;;;;0.33;0.33;;;;;16.28;100.00;99795.88;5017406;28;45551;-71
2022/09/28 10:47:07;;;;;;;;;1.00;1.00;;;;;16.33;100.00;99785.09;5035479;28;45490;-72
2022/09/28 10:49:42;;;;;;;;;3.00;0.33;;;;;16.48;100.00;99777.53;5018028;28;45570;-73
2022/09/28 10:52:37;;;;;;;;;2.00;1.00;;;;;16.71;100.00;99790.19;5033839;28;47430;-70
2022/09/28 10:55:24;;;;;;;;;1.00;1.00;;;;;16.80;100.00;99786.38;5028729;28;45486;-71
2022/09/28 10:57:49;;;;;;;;;2.33;0.33;;;;;16.85;100.00;99784.44;5014229;28;45400;-73
2022/09/28 11:00:30;;;;;;;;;1.00;1.00;;;;;16.88;100.00;99789.66;5033781;28;45591;-70
2022/09/28 11:02:55;;;;;;;;;3.00;0.00;;;;;16.97;100.00;99784.03;5034052;28;46669;-71
2022/09/28 11:05:26;;;;;;;;;0.00;0.00;;;;;17.16;100.00;99786.13;5034008;28;64344;-70
2022/09/28 11:07:54;;;;;;;;;1.00;1.00;;;;;17.20;100.00;99772.59;5033450;28;45603;-73
2022/09/28 11:10:22;;;;;;;;;2.00;1.00;;;;;17.28;100.00;99791.91;5011063;28;45832;-70
2022/09/28 11:12:48;;;;;;;;;0.00;0.00;;;;;17.36;100.00;99778.31;5036252;28;46519;-70
2022/09/28 11:15:29;;;;;;;;;1.00;0.67;;;;;17.46;100.00;99784.22;5017896;28;45484;-69
2022/09/28 11:17:54;;;;;;;;;1.67;1.00;;;;;17.48;100.00;99777.03;5033136;28;45395;-70
2022/09/28 11:20:23;;;;;;;;;0.33;0.00;;;;;17.50;100.00;99788.53;5035763;28;45341;-70
2022/09/28 11:22:49;;;;;;;;;0.00;0.00;;;;;17.50;100.00;99789.38;5027792;28;46917;-74
2022/09/28 11:25:23;;;;;;;;;3.00;1.00;;;;;17.46;100.00;99782.41;5029460;28;45659;-72
2022/09/28 11:27:52;;;;;;;;;2.00;1.00;;;;;17.56;100.00;99782.97;5035230;28;45416;-72
2022/09/28 11:30:24;;;;;;;;;1.00;1.00;;;;;17.64;100.00;99788.94;5036648;28;45424;-70
2022/09/28 11:32:52;;;;;;;;;1.33;1.00;;;;;17.70;100.00;99786.03;5033482;28;45743;-73
2022/09/28 11:35:20;;;;;;;;;1.33;0.67;;;;;17.69;100.00;99786.09;5035401;28;45660;-73
2022/09/28 11:38:08;;;;;;;;;1.00;1.00;;;;;17.67;100.00;99788.81;5036374;28;45574;-70
2022/09/28 11:40:53;;;;;;;;;2.00;1.00;;;;;17.62;100.00;99782.75;5014416;28;45531;-71
2022/09/28 11:43:47;;;;;;;;;1.00;1.00;;;;;17.57;100.00;99783.84;5035806;28;46423;-71
2022/09/28 11:46:38;;;;;;;;;0.00;0.00;;;;;17.51;100.00;99780.44;5022549;28;45515;-71